createdAt,value
2018-07-09T00:00:41.056Z,24.20
2018-07-09T00:01:41.693Z,24.21
2018-07-09T00:02:42.330Z,24.16
2018-07-09T00:03:42.914Z,24.17
2018-07-09T00:04:43.500Z,24.08
2018-07-09T00:05:44.087Z,24.14
2018-07-09T00:06:44.721Z,24.17
2018-07-09T00:07:45.361Z,24.13
2018-07-09T00:08:45.944Z,24.14
2018-07-09T00:09:46.683Z,24.08
2018-07-09T00:10:47.270Z,24.18
2018-07-09T00:11:47.852Z,24.06
2018-07-09T00:12:48.485Z,24.05
2018-07-09T00:13:49.069Z,24.13
2018-07-09T00:14:49.657Z,24.08
2018-07-09T00:15:50.244Z,24.17
2018-07-09T00:16:50.833Z,24.10
2018-07-09T00:17:51.420Z,24.08
2018-07-09T00:18:52.009Z,24.10
2018-07-09T00:19:52.591Z,24.10
2018-07-09T00:20:53.179Z,24.06
2018-07-09T00:21:53.814Z,24.14
2018-07-09T00:22:54.447Z,24.14
2018-07-09T00:23:55.031Z,24.05
2018-07-09T00:24:55.623Z,24.05
2018-07-09T00:25:56.209Z,24.13
2018-07-09T00:26:56.796Z,24.08
2018-07-09T00:27:57.426Z,24.08
2018-07-09T00:28:58.066Z,24.08
2018-07-09T00:29:58.648Z,24.02
2018-07-09T00:30:59.286Z,24.10
2018-07-09T00:31:59.870Z,24.03
2018-07-09T00:33:00.457Z,24.08
2018-07-09T00:34:01.037Z,24.08
2018-07-09T00:35:01.628Z,24.10
2018-07-09T00:36:02.209Z,24.06
2018-07-09T00:37:02.795Z,24.03
2018-07-09T00:38:03.376Z,24.05
2018-07-09T00:39:03.970Z,24.08
2018-07-09T00:40:04.553Z,24.03
2018-07-09T00:41:05.138Z,24.10
2018-07-09T00:42:05.723Z,24.10
2018-07-09T00:43:06.313Z,24.06
2018-07-09T00:44:06.900Z,24.03
2018-07-09T00:45:07.488Z,24.03
2018-07-09T00:46:08.123Z,24.11
2018-07-09T00:47:08.804Z,24.05
2018-07-09T00:48:09.395Z,24.06
2018-07-09T00:49:09.984Z,24.08
2018-07-09T00:50:10.569Z,24.08
2018-07-09T00:51:11.207Z,24.06
2018-07-09T00:52:11.792Z,24.08
2018-07-09T00:53:12.374Z,24.06
2018-07-09T00:54:12.959Z,24.03
2018-07-09T00:55:13.545Z,24.03
2018-07-09T00:56:14.134Z,24.05
2018-07-09T00:57:14.722Z,24.03
2018-07-09T00:58:15.359Z,24.06
2018-07-09T00:59:15.990Z,24.06
2018-07-09T01:00:16.620Z,24.06
2018-07-09T01:01:17.207Z,24.02
2018-07-09T01:02:17.840Z,24.03
2018-07-09T01:03:18.431Z,24.02
2018-07-09T01:04:19.060Z,24.05
2018-07-09T01:05:19.641Z,24.01
2018-07-09T01:06:20.278Z,24.03
2018-07-09T01:07:20.864Z,24.03
2018-07-09T01:08:21.451Z,24.03
2018-07-09T01:09:22.091Z,23.99
2018-07-09T01:10:22.675Z,24.05
2018-07-09T01:11:23.267Z,24.06
2018-07-09T01:12:23.851Z,24.10
2018-07-09T01:13:24.437Z,23.99
2018-07-09T01:14:25.019Z,24.01
2018-07-09T01:15:25.608Z,24.05
2018-07-09T01:16:26.195Z,24.08
2018-07-09T01:17:26.827Z,23.99
2018-07-09T01:18:27.416Z,24.03
2018-07-09T01:19:28.005Z,24.03
2018-07-09T01:20:28.696Z,24.06
2018-07-09T01:21:29.228Z,24.05
2018-07-09T01:22:29.916Z,24.05
2018-07-09T01:23:30.503Z,24.03
2018-07-09T01:24:31.092Z,24.06
2018-07-09T01:25:31.726Z,24.10
2018-07-09T01:26:32.309Z,24.06
2018-07-09T01:27:32.895Z,24.02
2018-07-09T01:28:33.481Z,24.06
2018-07-09T01:29:34.068Z,23.98
2018-07-09T01:30:34.655Z,23.96
2018-07-09T01:31:35.287Z,24.06
2018-07-09T01:32:35.873Z,23.99
2018-07-09T01:33:36.462Z,23.98
2018-07-09T01:34:37.099Z,24.03
2018-07-09T01:35:37.687Z,24.03
2018-07-09T01:36:38.320Z,24.03
2018-07-09T01:37:38.908Z,24.05
2018-07-09T01:38:39.539Z,24.01
2018-07-09T01:39:40.126Z,24.05
2018-07-09T01:40:40.710Z,23.96
2018-07-09T01:41:41.290Z,24.03
2018-07-09T01:42:41.880Z,24.01
2018-07-09T01:43:42.469Z,23.99
2018-07-09T01:44:43.101Z,23.98
2018-07-09T01:45:43.687Z,24.01
2018-07-09T01:46:44.271Z,24.01
2018-07-09T01:47:44.851Z,24.02
2018-07-09T01:48:45.442Z,23.96
2018-07-09T01:49:46.080Z,23.96
2018-07-09T01:50:46.668Z,23.92
2018-07-09T01:51:47.251Z,23.96
2018-07-09T01:52:47.837Z,23.96
2018-07-09T01:53:48.420Z,23.98
2018-07-09T01:54:49.058Z,24.02
2018-07-09T01:55:49.639Z,23.96
2018-07-09T01:56:50.228Z,23.95
2018-07-09T01:57:50.906Z,23.93
2018-07-09T01:58:51.490Z,23.96
2018-07-09T01:59:52.132Z,23.98
2018-07-09T02:00:52.714Z,23.95
2018-07-09T02:01:53.298Z,24.02
2018-07-09T02:02:53.886Z,23.92
2018-07-09T02:03:54.468Z,23.93
2018-07-09T02:04:55.108Z,23.96
2018-07-09T02:05:55.689Z,23.98
2018-07-09T02:06:56.278Z,23.88
2018-07-09T02:07:56.865Z,23.91
2018-07-09T02:08:57.447Z,23.98
2018-07-09T02:09:58.035Z,23.92
2018-07-09T02:10:58.666Z,23.96
2018-07-09T02:11:59.306Z,23.93
2018-07-09T02:12:59.895Z,23.93
2018-07-09T02:14:00.536Z,23.93
2018-07-09T02:15:01.117Z,23.88
2018-07-09T02:16:01.756Z,23.87
2018-07-09T02:17:02.433Z,23.88
2018-07-09T02:18:03.019Z,23.91
2018-07-09T02:19:03.658Z,23.84
2018-07-09T02:20:04.242Z,23.83
2018-07-09T02:21:04.831Z,23.86
2018-07-09T02:22:05.413Z,23.88
2018-07-09T02:23:06.048Z,23.81
2018-07-09T02:24:06.673Z,23.86
2018-07-09T02:25:07.259Z,23.87
2018-07-09T02:26:07.843Z,23.88
2018-07-09T02:27:08.437Z,23.84
2018-07-09T02:28:09.063Z,23.84
2018-07-09T02:29:09.653Z,23.91
2018-07-09T02:30:10.290Z,23.81
2018-07-09T02:31:10.877Z,23.80
2018-07-09T02:32:11.462Z,23.77
2018-07-09T02:33:12.049Z,23.91
2018-07-09T02:34:12.637Z,23.80
2018-07-09T02:35:13.220Z,23.83
2018-07-09T02:36:13.897Z,23.77
2018-07-09T02:37:14.489Z,23.81
2018-07-09T02:38:15.076Z,23.80
2018-07-09T02:39:15.761Z,23.80
2018-07-09T02:40:16.348Z,23.80
2018-07-09T02:41:16.936Z,23.73
2018-07-09T02:42:17.523Z,23.73
2018-07-09T02:43:18.154Z,23.80
2018-07-09T02:44:18.734Z,23.77
2018-07-09T02:45:19.323Z,23.80
2018-07-09T02:46:19.915Z,23.77
2018-07-09T02:47:20.492Z,23.73
2018-07-09T02:48:21.078Z,23.80
2018-07-09T02:49:21.664Z,23.77
2018-07-09T02:50:22.249Z,23.77
2018-07-09T02:51:22.835Z,23.78
2018-07-09T02:52:23.473Z,23.76
2018-07-09T02:53:24.211Z,23.76
2018-07-09T02:54:24.803Z,23.83
2018-07-09T02:55:25.381Z,23.76
2018-07-09T02:56:25.968Z,23.68
2018-07-09T02:57:26.546Z,23.80
2018-07-09T02:58:27.178Z,23.77
2018-07-09T02:59:27.809Z,23.76
2018-07-09T03:00:28.398Z,23.80
2018-07-09T03:01:28.976Z,23.68
2018-07-09T03:02:29.559Z,23.68
2018-07-09T03:03:30.142Z,23.81
2018-07-09T03:04:30.730Z,23.74
2018-07-09T03:05:31.317Z,23.77
2018-07-09T03:06:31.948Z,23.81
2018-07-09T03:07:32.537Z,23.83
2018-07-09T03:08:33.118Z,23.81
2018-07-09T03:09:33.756Z,23.76
2018-07-09T03:10:34.334Z,23.78
2018-07-09T03:11:34.974Z,23.73
2018-07-09T03:12:35.563Z,23.71
2018-07-09T03:13:36.145Z,23.68
2018-07-09T03:14:36.734Z,23.73
2018-07-09T03:15:37.323Z,23.69
2018-07-09T03:16:37.908Z,23.74
2018-07-09T03:17:38.486Z,23.71
2018-07-09T03:18:39.073Z,23.68
2018-07-09T03:19:39.711Z,23.69
2018-07-09T03:20:40.298Z,23.73
2018-07-09T03:21:40.881Z,23.71
2018-07-09T03:22:41.471Z,23.69
2018-07-09T03:23:42.064Z,23.65
2018-07-09T03:24:42.647Z,23.69
2018-07-09T03:25:43.228Z,23.74
2018-07-09T03:26:43.818Z,23.71
2018-07-09T03:27:44.404Z,23.69
2018-07-09T03:28:44.986Z,23.63
2018-07-09T03:29:45.581Z,23.63
2018-07-09T03:30:46.212Z,23.56
2018-07-09T03:31:46.793Z,23.62
2018-07-09T03:32:47.433Z,23.61
2018-07-09T03:33:48.022Z,23.63
2018-07-09T03:34:48.608Z,23.61
2018-07-09T03:35:49.194Z,23.63
2018-07-09T03:36:49.780Z,23.59
2018-07-09T03:37:50.369Z,23.61
2018-07-09T03:38:50.957Z,23.63
2018-07-09T03:39:51.543Z,23.63
2018-07-09T03:40:52.127Z,23.63
2018-07-09T03:41:52.716Z,23.65
2018-07-09T03:42:53.295Z,23.62
2018-07-09T03:43:53.938Z,23.66
2018-07-09T03:44:54.572Z,23.61
2018-07-09T03:45:55.153Z,23.63
2018-07-09T03:46:55.832Z,23.61
2018-07-09T03:47:56.470Z,23.61
2018-07-09T03:48:57.104Z,23.58
2018-07-09T03:49:57.690Z,23.62
2018-07-09T03:50:58.274Z,23.56
2018-07-09T03:51:58.862Z,23.58
2018-07-09T03:52:59.445Z,23.63
2018-07-09T03:54:00.087Z,23.63
2018-07-09T03:55:00.721Z,23.66
2018-07-09T03:56:01.360Z,23.66
2018-07-09T03:57:01.945Z,23.63
2018-07-09T03:58:02.531Z,23.59
2018-07-09T03:59:03.114Z,23.59
2018-07-09T04:00:03.698Z,23.62
2018-07-09T04:01:04.329Z,23.59
2018-07-09T04:02:04.921Z,23.62
2018-07-09T04:03:05.499Z,23.55
2018-07-09T04:04:06.077Z,23.65
2018-07-09T04:05:06.667Z,23.58
2018-07-09T04:06:07.299Z,23.56
2018-07-09T04:07:07.887Z,23.61
2018-07-09T04:08:08.469Z,23.55
2018-07-09T04:09:09.104Z,23.55
2018-07-09T04:10:09.730Z,23.54
2018-07-09T04:11:10.318Z,23.55
2018-07-09T04:12:10.899Z,23.54
2018-07-09T04:13:11.492Z,23.58
2018-07-09T04:14:12.119Z,23.50
2018-07-09T04:15:12.708Z,23.56
2018-07-09T04:16:13.295Z,23.55
2018-07-09T04:17:13.886Z,23.59
2018-07-09T04:18:14.514Z,23.55
2018-07-09T04:19:15.096Z,23.48
2018-07-09T04:20:15.685Z,23.54
2018-07-09T04:21:16.264Z,23.50
2018-07-09T04:22:16.853Z,23.48
2018-07-09T04:23:17.438Z,23.56
2018-07-09T04:24:18.123Z,23.54
2018-07-09T04:25:18.752Z,23.48
2018-07-09T04:26:19.345Z,23.54
2018-07-09T04:27:19.915Z,23.55
2018-07-09T04:28:20.500Z,23.55
2018-07-09T04:29:21.131Z,23.55
2018-07-09T04:30:21.720Z,23.55
2018-07-09T04:31:22.350Z,23.48
2018-07-09T04:32:22.938Z,23.54
2018-07-09T04:33:23.521Z,23.51
2018-07-09T04:34:24.155Z,23.54
2018-07-09T04:35:24.740Z,23.47
2018-07-09T04:36:25.319Z,23.47
2018-07-09T04:37:25.954Z,23.50
2018-07-09T04:38:26.535Z,23.46
2018-07-09T04:39:27.122Z,23.46
2018-07-09T04:40:27.757Z,23.51
2018-07-09T04:41:28.346Z,23.46
2018-07-09T04:42:28.933Z,23.46
2018-07-09T04:43:29.518Z,23.48
2018-07-09T04:44:30.100Z,23.46
2018-07-09T04:45:30.683Z,23.50
2018-07-09T04:46:31.273Z,23.50
2018-07-09T04:47:31.912Z,23.43
2018-07-09T04:48:32.496Z,23.46
2018-07-09T04:49:33.085Z,23.47
2018-07-09T04:50:33.764Z,23.47
2018-07-09T04:51:34.346Z,23.46
2018-07-09T04:52:34.929Z,23.44
2018-07-09T04:53:35.548Z,23.54
2018-07-09T04:54:36.101Z,23.44
2018-07-09T04:55:36.691Z,23.43
2018-07-09T04:56:37.375Z,23.46
2018-07-09T04:57:37.961Z,23.43
2018-07-09T04:58:38.542Z,23.46
2018-07-09T04:59:39.178Z,23.48
2018-07-09T05:00:39.764Z,23.46
2018-07-09T05:01:40.351Z,23.43
2018-07-09T05:02:40.941Z,23.44
2018-07-09T05:03:41.521Z,23.46
2018-07-09T05:04:42.195Z,23.44
2018-07-09T05:05:42.868Z,23.48
2018-07-09T05:06:43.405Z,23.48
2018-07-09T05:07:43.995Z,23.50
2018-07-09T05:08:44.628Z,23.46
2018-07-09T05:09:45.261Z,23.41
2018-07-09T05:10:45.898Z,23.46
2018-07-09T05:11:46.520Z,23.44
2018-07-09T05:12:47.155Z,23.44
2018-07-09T05:13:47.744Z,23.46
2018-07-09T05:14:48.327Z,23.48
2018-07-09T05:15:48.914Z,23.47
2018-07-09T05:16:49.500Z,23.47
2018-07-09T05:17:50.082Z,23.44
2018-07-09T05:18:50.721Z,23.46
2018-07-09T05:19:51.302Z,23.46
2018-07-09T05:20:51.890Z,23.40
2018-07-09T05:21:52.473Z,23.40
2018-07-09T05:22:53.064Z,23.40
2018-07-09T05:23:53.694Z,23.41
2018-07-09T05:24:54.278Z,23.44
2018-07-09T05:25:54.863Z,23.37
2018-07-09T05:26:55.496Z,23.43
2018-07-09T05:27:56.087Z,23.47
2018-07-09T05:28:56.673Z,23.40
2018-07-09T05:29:57.306Z,23.47
2018-07-09T05:30:57.992Z,23.46
2018-07-09T05:31:58.673Z,23.40
2018-07-09T05:32:59.260Z,23.37
2018-07-09T05:33:59.847Z,23.43
2018-07-09T05:35:00.436Z,23.39
2018-07-09T05:36:01.021Z,23.44
2018-07-09T05:37:01.606Z,23.37
2018-07-09T05:38:02.188Z,23.40
2018-07-09T05:39:02.976Z,23.40
2018-07-09T05:40:03.577Z,23.44
2018-07-09T05:41:04.144Z,23.40
2018-07-09T05:42:04.725Z,23.40
2018-07-09T05:43:05.314Z,23.41
2018-07-09T05:44:05.890Z,23.39
2018-07-09T05:45:11.577Z,23.40
2018-07-09T05:46:12.173Z,23.39
2018-07-09T05:47:12.802Z,23.41
2018-07-09T05:48:13.385Z,23.47
2018-07-09T05:49:13.979Z,23.36
2018-07-09T05:50:14.562Z,23.41
2018-07-09T05:51:15.150Z,23.40
2018-07-09T05:52:15.782Z,23.46
2018-07-09T05:53:16.424Z,23.40
2018-07-09T05:54:17.001Z,23.44
2018-07-09T05:55:17.589Z,23.37
2018-07-09T05:56:18.176Z,23.37
2018-07-09T05:57:18.756Z,23.37
2018-07-09T05:58:19.397Z,23.41
2018-07-09T05:59:19.979Z,23.40
2018-07-09T06:00:20.565Z,23.34
2018-07-09T06:01:21.146Z,23.40
2018-07-09T06:02:21.737Z,23.41
2018-07-09T06:03:22.319Z,23.39
2018-07-09T06:04:22.949Z,23.41
2018-07-09T06:05:23.541Z,23.43
2018-07-09T06:06:24.116Z,23.39
2018-07-09T06:07:24.700Z,23.43
2018-07-09T06:08:25.285Z,23.40
2018-07-09T06:09:25.874Z,23.39
2018-07-09T06:10:26.457Z,23.39
2018-07-09T06:11:27.049Z,23.36
2018-07-09T06:12:27.677Z,23.36
2018-07-09T06:13:28.304Z,23.37
2018-07-09T06:14:28.900Z,23.40
2018-07-09T06:15:29.538Z,23.46
2018-07-09T06:16:30.120Z,23.41
2018-07-09T06:17:30.706Z,23.37
2018-07-09T06:18:31.294Z,23.37
2018-07-09T06:19:31.890Z,23.43
2018-07-09T06:20:37.514Z,23.41
2018-07-09T06:21:38.099Z,23.39
2018-07-09T06:22:38.685Z,23.40
2018-07-09T06:23:39.316Z,23.37
2018-07-09T06:24:39.896Z,23.34
2018-07-09T06:25:40.488Z,23.34
2018-07-09T06:26:41.069Z,23.36
2018-07-09T06:27:41.658Z,23.40
2018-07-09T06:28:42.248Z,23.36
2018-07-09T06:29:42.832Z,23.47
2018-07-09T06:30:43.410Z,23.39
2018-07-09T06:31:43.997Z,23.37
2018-07-09T06:32:44.581Z,23.43
2018-07-09T06:33:45.214Z,23.40
2018-07-09T06:34:45.799Z,23.39
2018-07-09T06:35:46.441Z,23.32
2018-07-09T06:36:47.020Z,23.34
2018-07-09T06:37:47.609Z,23.39
2018-07-09T06:38:48.246Z,23.32
2018-07-09T06:39:48.874Z,23.39
2018-07-09T06:40:49.459Z,23.36
2018-07-09T06:41:50.045Z,23.36
2018-07-09T06:42:50.646Z,23.39
2018-07-09T06:43:51.263Z,23.28
2018-07-09T06:44:51.850Z,23.34
2018-07-09T06:45:52.431Z,23.31
2018-07-09T06:46:53.020Z,23.34
2018-07-09T06:47:53.649Z,23.31
2018-07-09T06:48:54.237Z,23.36
2018-07-09T06:49:54.820Z,23.32
2018-07-09T06:50:55.406Z,23.39
2018-07-09T06:51:55.993Z,23.44
2018-07-09T06:52:56.627Z,23.34
2018-07-09T06:53:57.311Z,23.37
2018-07-09T06:54:57.894Z,23.28
2018-07-09T06:55:58.493Z,23.31
2018-07-09T06:56:59.157Z,23.31
2018-07-09T06:57:59.747Z,23.32
2018-07-09T06:59:00.327Z,23.31
2018-07-09T07:00:00.910Z,23.32
2018-07-09T07:01:01.492Z,23.32
2018-07-09T07:02:02.078Z,23.32
2018-07-09T07:03:02.669Z,23.32
2018-07-09T07:04:03.304Z,23.36
2018-07-09T07:05:03.893Z,23.39
2018-07-09T07:06:04.478Z,23.31
2018-07-09T07:07:05.054Z,23.34
2018-07-09T07:08:05.646Z,23.36
2018-07-09T07:09:06.414Z,23.39
2018-07-09T07:10:06.922Z,23.36
2018-07-09T07:11:07.556Z,23.34
2018-07-09T07:12:08.138Z,23.34
2018-07-09T07:13:08.720Z,23.37
2018-07-09T07:14:09.307Z,23.34
2018-07-09T07:15:09.938Z,23.31
2018-07-09T07:16:10.528Z,23.37
2018-07-09T07:17:11.113Z,23.37
2018-07-09T07:18:11.693Z,23.27
2018-07-09T07:19:12.276Z,23.27
2018-07-09T07:20:12.909Z,23.24
2018-07-09T07:21:13.499Z,23.27
2018-07-09T07:22:14.133Z,23.37
2018-07-09T07:23:14.720Z,23.32
2018-07-09T07:24:15.297Z,23.28
2018-07-09T07:25:15.888Z,23.37
2018-07-09T07:26:16.518Z,23.31
2018-07-09T07:27:17.155Z,23.36
2018-07-09T07:28:17.781Z,23.37
2018-07-09T07:29:18.364Z,23.27
2018-07-09T07:30:18.952Z,23.36
2018-07-09T07:31:19.539Z,23.31
2018-07-09T07:32:20.178Z,23.37
2018-07-09T07:33:20.778Z,23.32
2018-07-09T07:34:21.398Z,23.27
2018-07-09T07:35:22.032Z,23.25
2018-07-09T07:36:22.616Z,23.37
2018-07-09T07:37:23.199Z,23.28
2018-07-09T07:38:23.781Z,23.23
2018-07-09T07:39:24.415Z,23.39
2018-07-09T07:40:24.952Z,23.23
2018-07-09T07:41:25.532Z,23.28
2018-07-09T07:42:26.113Z,23.23
2018-07-09T07:43:26.751Z,23.23
2018-07-09T07:44:27.339Z,23.21
2018-07-09T07:45:27.923Z,23.27
2018-07-09T07:46:28.557Z,23.24
2018-07-09T07:47:29.140Z,23.24
2018-07-09T07:48:29.768Z,23.27
2018-07-09T07:49:30.349Z,23.20
2018-07-09T07:50:31.052Z,23.17
2018-07-09T07:51:31.521Z,23.17
2018-07-09T07:52:32.104Z,23.24
2018-07-09T07:53:32.685Z,23.18
2018-07-09T07:54:33.272Z,23.28
2018-07-09T07:55:33.849Z,23.24
2018-07-09T07:56:34.488Z,23.31
2018-07-09T07:57:35.069Z,23.21
2018-07-09T07:58:35.710Z,23.28
2018-07-09T07:59:36.292Z,23.15
2018-07-09T08:00:36.881Z,23.23
2018-07-09T08:01:37.464Z,23.21
2018-07-09T08:02:38.047Z,23.24
2018-07-09T08:03:38.679Z,23.18
2018-07-09T08:04:39.304Z,23.20
2018-07-09T08:05:39.888Z,23.13
2018-07-09T08:06:40.520Z,23.17
2018-07-09T08:07:41.107Z,23.18
2018-07-09T08:08:41.689Z,23.23
2018-07-09T08:09:42.320Z,23.27
2018-07-09T08:10:42.864Z,23.17
2018-07-09T08:11:48.566Z,23.23
2018-07-09T08:13:27.175Z,23.25
2018-07-09T08:13:45.698Z,23.23
2018-07-09T08:14:46.264Z,23.21
2018-07-09T08:15:46.827Z,23.23
2018-07-09T08:16:47.464Z,23.23
2018-07-09T08:17:48.050Z,23.27
2018-07-09T08:18:48.657Z,23.28
2018-07-09T08:19:49.274Z,23.27
2018-07-09T08:20:49.900Z,23.27
2018-07-09T08:21:50.485Z,23.36
2018-07-09T08:22:51.066Z,23.24
2018-07-09T08:23:51.655Z,23.31
2018-07-09T08:24:52.288Z,23.40
2018-07-09T08:25:52.874Z,23.31
2018-07-09T08:26:53.458Z,23.32
2018-07-09T08:27:54.045Z,23.31
2018-07-09T08:28:54.629Z,23.27
2018-07-09T08:29:55.220Z,23.31
2018-07-09T08:30:55.875Z,23.36
2018-07-09T08:31:56.476Z,23.34
2018-07-09T08:32:57.075Z,23.34
2018-07-09T08:33:57.666Z,23.32
2018-07-09T08:34:58.234Z,23.34
2018-07-09T08:35:58.820Z,23.37
2018-07-09T08:36:59.403Z,23.39
2018-07-09T08:38:00.084Z,23.40
2018-07-09T08:39:00.570Z,23.36
2018-07-09T08:40:01.203Z,23.48
2018-07-09T08:41:01.792Z,23.43
2018-07-09T08:42:02.380Z,23.39
2018-07-09T08:43:02.968Z,23.44
2018-07-09T08:44:03.551Z,23.50
2018-07-09T08:45:04.137Z,23.47
2018-07-09T08:46:04.774Z,23.47
2018-07-09T08:47:05.358Z,23.54
2018-07-09T08:48:05.941Z,23.50
2018-07-09T08:49:06.571Z,23.44
2018-07-09T08:50:07.209Z,23.43
2018-07-09T08:51:07.846Z,23.46
2018-07-09T08:52:08.435Z,23.40
2018-07-09T08:53:09.022Z,23.40
2018-07-09T08:54:09.605Z,23.39
2018-07-09T08:55:10.188Z,23.37
2018-07-09T08:56:10.825Z,23.36
2018-07-09T08:57:11.406Z,23.43
2018-07-09T08:58:11.996Z,23.44
2018-07-09T08:59:12.580Z,23.44
2018-07-09T09:00:13.166Z,23.43
2018-07-09T09:01:13.751Z,23.36
2018-07-09T09:02:14.429Z,23.37
2018-07-09T09:03:15.071Z,23.36
2018-07-09T09:04:15.701Z,23.41
2018-07-09T09:05:16.287Z,23.36
2018-07-09T09:06:16.876Z,23.41
2018-07-09T09:07:17.513Z,23.37
2018-07-09T09:08:18.097Z,23.37
2018-07-09T09:09:18.683Z,23.43
2018-07-09T09:10:19.333Z,23.48
2018-07-09T09:11:19.861Z,23.39
2018-07-09T09:12:20.492Z,23.40
2018-07-09T09:13:21.081Z,23.44
2018-07-09T09:14:21.765Z,23.37
2018-07-09T09:15:22.346Z,23.46
2018-07-09T09:16:22.988Z,23.50
2018-07-09T09:17:23.525Z,23.46
2018-07-09T09:18:24.162Z,23.50
2018-07-09T09:19:24.747Z,23.55
2018-07-09T09:20:25.334Z,23.48
2018-07-09T09:21:25.925Z,23.43
2018-07-09T09:22:26.512Z,23.44
2018-07-09T09:23:27.101Z,23.50
2018-07-09T09:24:27.683Z,23.47
2018-07-09T09:25:28.325Z,23.50
2018-07-09T09:26:28.909Z,23.51
2018-07-09T09:27:29.545Z,23.54
2018-07-09T09:28:30.129Z,23.50
2018-07-09T09:29:30.711Z,23.47
2018-07-09T09:30:31.297Z,23.55
2018-07-09T09:31:31.948Z,23.55
2018-07-09T09:32:32.518Z,23.55
2018-07-09T09:33:33.155Z,23.54
2018-07-09T09:34:33.742Z,23.58
2018-07-09T09:35:34.331Z,23.54
2018-07-09T09:36:34.911Z,23.56
2018-07-09T09:37:35.633Z,23.61
2018-07-09T09:38:36.189Z,23.63
2018-07-09T09:39:36.778Z,23.59
2018-07-09T09:40:37.365Z,23.61
2018-07-09T09:41:37.949Z,23.63
2018-07-09T09:42:38.532Z,23.55
2018-07-09T09:43:39.116Z,23.63
2018-07-09T09:44:39.719Z,23.65
2018-07-09T09:45:40.344Z,23.65
2018-07-09T09:46:40.928Z,23.63
2018-07-09T09:47:41.511Z,23.65
2018-07-09T09:48:42.148Z,23.61
2018-07-09T09:49:42.737Z,23.65
2018-07-09T09:50:43.375Z,23.61
2018-07-09T09:51:43.962Z,23.62
2018-07-09T09:52:44.598Z,23.65
2018-07-09T09:53:45.185Z,23.71
2018-07-09T09:54:45.768Z,23.73
2018-07-09T09:55:46.350Z,23.74
2018-07-09T09:56:46.939Z,23.69
2018-07-09T09:57:47.531Z,23.77
2018-07-09T09:58:48.109Z,23.69
2018-07-09T09:59:48.697Z,23.65
2018-07-09T10:00:49.281Z,23.71
2018-07-09T10:01:49.914Z,23.68
2018-07-09T10:02:50.502Z,23.69
2018-07-09T10:03:51.132Z,23.68
2018-07-09T10:04:51.723Z,23.71
2018-07-09T10:05:52.357Z,23.68
2018-07-09T10:06:52.947Z,23.71
2018-07-09T10:07:53.584Z,23.73
2018-07-09T10:08:54.176Z,23.69
2018-07-09T10:09:54.761Z,23.77
2018-07-09T10:10:55.347Z,23.65
2018-07-09T10:11:55.936Z,23.69
2018-07-09T10:12:56.720Z,23.76
2018-07-09T10:13:57.164Z,23.73
2018-07-09T10:14:57.749Z,23.74
2018-07-09T10:15:58.337Z,23.78
2018-07-09T10:16:59.031Z,23.81
2018-07-09T10:17:59.565Z,23.71
2018-07-09T10:19:00.201Z,23.68
2018-07-09T10:20:00.876Z,23.73
2018-07-09T10:21:01.467Z,23.76
2018-07-09T10:22:02.055Z,23.66
2018-07-09T10:23:02.733Z,23.69
2018-07-09T10:24:03.423Z,23.81
2018-07-09T10:25:04.207Z,23.81
2018-07-09T10:26:04.794Z,23.78
2018-07-09T10:27:05.382Z,23.80
2018-07-09T10:28:05.972Z,23.77
2018-07-09T10:29:06.599Z,23.76
2018-07-09T10:30:07.189Z,23.71
2018-07-09T10:31:07.771Z,23.71
2018-07-09T10:32:08.358Z,23.73
2018-07-09T10:33:08.949Z,23.71
2018-07-09T10:34:09.587Z,23.73
2018-07-09T10:35:10.175Z,23.78
2018-07-09T10:36:10.766Z,23.84
2018-07-09T10:37:11.398Z,23.81
2018-07-09T10:38:11.990Z,23.80
2018-07-09T10:39:12.578Z,23.80
2018-07-09T10:40:13.215Z,23.77
2018-07-09T10:41:13.805Z,23.78
2018-07-09T10:42:14.441Z,23.86
2018-07-09T10:43:15.029Z,23.88
2018-07-09T10:44:15.711Z,23.87
2018-07-09T10:45:16.643Z,23.84
2018-07-09T10:46:17.235Z,23.87
2018-07-09T10:47:17.816Z,23.88
2018-07-09T10:48:18.405Z,23.86
2018-07-09T10:49:18.995Z,23.91
2018-07-09T10:50:19.572Z,23.88
2018-07-09T10:51:20.163Z,23.87
2018-07-09T10:52:20.744Z,23.93
2018-07-09T10:53:21.334Z,23.95
2018-07-09T10:54:21.923Z,23.95
2018-07-09T10:55:22.584Z,23.91
2018-07-09T10:56:23.194Z,23.96
2018-07-09T10:57:23.782Z,23.98
2018-07-09T10:58:24.420Z,23.91
2018-07-09T10:59:25.004Z,23.92
2018-07-09T11:00:25.595Z,23.93
2018-07-09T11:01:26.181Z,23.93
2018-07-09T11:02:26.770Z,23.92
2018-07-09T11:03:27.401Z,23.96
2018-07-09T11:04:28.041Z,23.92
2018-07-09T11:05:28.630Z,23.92
2018-07-09T11:06:29.217Z,24.01
2018-07-09T11:07:29.804Z,24.02
2018-07-09T11:08:30.392Z,23.96
2018-07-09T11:09:30.977Z,24.06
2018-07-09T11:10:31.613Z,24.02
2018-07-09T11:11:32.247Z,23.98
2018-07-09T11:12:32.837Z,24.03
2018-07-09T11:13:33.423Z,24.02
2018-07-09T11:14:34.005Z,23.98
2018-07-09T11:15:34.591Z,23.99
2018-07-09T11:16:35.228Z,24.06
2018-07-09T11:17:35.864Z,24.10
2018-07-09T11:18:36.494Z,24.06
2018-07-09T11:19:37.080Z,24.03
2018-07-09T11:20:37.713Z,24.01
2018-07-09T11:21:38.385Z,24.10
2018-07-09T11:22:38.886Z,24.06
2018-07-09T11:23:39.478Z,24.11
2018-07-09T11:24:40.062Z,24.08
2018-07-09T11:25:40.649Z,24.08
2018-07-09T11:26:41.231Z,24.06
2018-07-09T11:27:41.820Z,24.10
2018-07-09T11:28:42.408Z,24.10
2018-07-09T11:29:43.045Z,24.06
2018-07-09T11:30:43.774Z,24.17
2018-07-09T11:31:44.464Z,24.17
2018-07-09T11:32:45.054Z,24.16
2018-07-09T11:33:45.740Z,24.17
2018-07-09T11:34:46.326Z,24.16
2018-07-09T11:35:46.911Z,24.16
2018-07-09T11:36:47.503Z,24.20
2018-07-09T11:37:48.088Z,24.16
2018-07-09T11:38:48.724Z,24.23
2018-07-09T11:39:49.310Z,24.20
2018-07-09T11:40:49.893Z,24.20
2018-07-09T11:41:50.480Z,24.24
2018-07-09T11:42:51.065Z,24.24
2018-07-09T11:43:51.652Z,24.30
2018-07-09T11:44:52.299Z,24.32
2018-07-09T11:45:52.827Z,24.32
2018-07-09T11:46:53.455Z,24.29
2018-07-09T11:47:54.047Z,24.29
2018-07-09T11:48:54.683Z,24.29
2018-07-09T11:49:55.317Z,24.29
2018-07-09T11:50:55.908Z,24.26
2018-07-09T11:51:56.538Z,24.26
2018-07-09T11:52:57.129Z,24.33
2018-07-09T11:53:57.718Z,24.26
2018-07-09T11:54:58.304Z,24.26
2018-07-09T11:55:58.891Z,24.26
2018-07-09T11:56:59.480Z,24.24
2018-07-09T11:58:00.060Z,24.30
2018-07-09T11:59:00.732Z,24.35
2018-07-09T12:00:01.288Z,24.38
2018-07-09T12:01:01.920Z,24.38
2018-07-09T12:02:02.509Z,24.38
2018-07-09T12:03:03.109Z,24.43
2018-07-09T12:04:03.686Z,24.33
2018-07-09T12:05:04.324Z,24.38
2018-07-09T12:06:04.917Z,24.32
2018-07-09T12:07:05.550Z,24.42
2018-07-09T12:08:06.141Z,24.38
2018-07-09T12:09:06.780Z,24.38
2018-07-09T12:10:07.364Z,24.39
2018-07-09T12:11:08.002Z,24.43
2018-07-09T12:12:08.589Z,24.38
2018-07-09T12:13:09.174Z,24.39
2018-07-09T12:14:09.761Z,24.28
2018-07-09T12:15:10.401Z,24.39
2018-07-09T12:16:10.988Z,24.39
2018-07-09T12:17:11.578Z,24.40
2018-07-09T12:18:12.164Z,24.40
2018-07-09T12:19:12.751Z,24.36
2018-07-09T12:20:13.340Z,24.45
2018-07-09T12:21:13.988Z,24.39
2018-07-09T12:22:14.601Z,24.35
2018-07-09T12:23:15.193Z,24.39
2018-07-09T12:24:15.774Z,24.43
2018-07-09T12:25:16.363Z,24.38
2018-07-09T12:26:16.987Z,24.35
2018-07-09T12:27:17.578Z,24.35
2018-07-09T12:28:18.168Z,24.40
2018-07-09T12:29:18.805Z,24.39
2018-07-09T12:30:19.444Z,24.42
2018-07-09T12:31:20.032Z,24.48
2018-07-09T12:32:20.620Z,24.36
2018-07-09T12:33:21.206Z,24.40
2018-07-09T12:34:21.796Z,24.43
2018-07-09T12:35:22.387Z,24.40
2018-07-09T12:36:23.048Z,24.38
2018-07-09T12:37:23.562Z,24.42
2018-07-09T12:38:24.149Z,24.40
2018-07-09T12:39:24.779Z,24.47
2018-07-09T12:40:25.366Z,24.38
2018-07-09T12:41:25.950Z,24.53
2018-07-09T12:42:26.592Z,24.39
2018-07-09T12:43:27.175Z,24.43
2018-07-09T12:44:27.817Z,24.38
2018-07-09T12:45:28.406Z,24.43
2018-07-09T12:46:28.991Z,24.40
2018-07-09T12:47:29.581Z,24.42
2018-07-09T12:48:30.211Z,24.47
2018-07-09T12:49:30.797Z,24.40
2018-07-09T12:50:31.386Z,24.38
2018-07-09T12:51:31.975Z,24.45
2018-07-09T12:52:32.613Z,24.45
2018-07-09T12:53:33.201Z,24.39
2018-07-09T12:54:33.789Z,24.45
2018-07-09T12:55:34.380Z,24.48
2018-07-09T12:56:34.969Z,24.51
2018-07-09T12:57:35.557Z,24.42
2018-07-09T12:58:36.148Z,24.42
2018-07-09T12:59:36.736Z,24.40
2018-07-09T13:00:37.377Z,24.43